createdAt,value
2022-08-10T00:01:05.439Z,67.5
2022-08-10T00:02:41.760Z,68
2022-08-10T00:04:18.092Z,68
2022-08-10T00:05:54.430Z,68
2022-08-10T00:07:30.764Z,68.5
2022-08-10T00:09:07.088Z,68.5
2022-08-10T00:10:43.412Z,68.5
2022-08-10T00:12:19.751Z,68.5
2022-08-10T00:13:56.085Z,69
2022-08-10T00:15:32.414Z,69
2022-08-10T00:17:07.753Z,69
2022-08-10T00:18:44.092Z,69
2022-08-10T00:20:20.417Z,69.5
2022-08-10T00:21:56.750Z,69.5
2022-08-10T00:23:33.082Z,69.5
2022-08-10T00:25:09.411Z,69.5
2022-08-10T00:26:45.743Z,70
2022-08-10T00:28:22.073Z,70
2022-08-10T00:29:58.405Z,70
2022-08-10T00:31:34.736Z,70.5
2022-08-10T00:33:11.068Z,70.5
2022-08-10T00:34:47.392Z,70.5
2022-08-10T00:36:23.733Z,70.5
2022-08-10T00:37:59.073Z,71
2022-08-10T00:39:35.408Z,71
2022-08-10T00:41:11.736Z,71
2022-08-10T00:42:48.064Z,71
2022-08-10T00:44:24.395Z,71.5
2022-08-10T00:46:00.740Z,71.5
2022-08-10T00:47:37.062Z,71.5
2022-08-10T00:49:13.397Z,71.5
2022-08-10T00:50:49.728Z,72
2022-08-10T00:52:26.052Z,72
2022-08-10T00:54:02.380Z,72
2022-08-10T00:55:38.716Z,72.5
2022-08-10T00:57:15.046Z,72.5
2022-08-10T00:58:50.395Z,72.5
2022-08-10T01:00:26.723Z,72.5
2022-08-10T01:02:03.051Z,72.5
2022-08-10T01:03:39.380Z,73
2022-08-10T01:05:15.714Z,73
2022-08-10T01:06:52.040Z,73
2022-08-10T01:08:28.378Z,73
2022-08-10T01:10:04.704Z,73
2022-08-10T01:11:41.049Z,73
2022-08-10T01:13:17.360Z,73.5
2022-08-10T01:14:53.699Z,73.5
2022-08-10T01:16:30.019Z,73.5
2022-08-10T01:18:06.361Z,73.5
2022-08-10T01:19:42.689Z,73.5
2022-08-10T01:21:18.040Z,73.5
2022-08-10T01:22:54.372Z,74
2022-08-10T01:24:30.696Z,74
2022-08-10T01:26:07.022Z,74
2022-08-10T01:27:43.352Z,74
2022-08-10T01:29:19.689Z,74
2022-08-10T01:30:56.026Z,74
2022-08-10T01:32:32.348Z,74
2022-08-10T01:34:08.698Z,74.5
2022-08-10T01:35:45.022Z,74.5
2022-08-10T01:37:21.345Z,74.5
2022-08-10T01:38:57.677Z,74.5
2022-08-10T01:40:34.010Z,74.5
2022-08-10T01:42:09.355Z,74.5
2022-08-10T01:43:45.679Z,74.5
2022-08-10T01:45:22.030Z,74.5
2022-08-10T01:46:57.367Z,75
2022-08-10T01:48:33.721Z,75
2022-08-10T01:50:10.029Z,75.5
2022-08-10T01:51:46.372Z,75.5
2022-08-10T01:53:22.689Z,76
2022-08-10T01:54:59.017Z,76
2022-08-10T01:56:35.347Z,76.5
2022-08-10T01:58:11.679Z,76.5
2022-08-10T01:59:48.012Z,77
2022-08-10T02:01:24.339Z,77
2022-08-10T02:03:00.686Z,77.5
2022-08-10T02:04:36.999Z,77.5
2022-08-10T02:06:13.349Z,77.5
2022-08-10T02:07:49.674Z,78
2022-08-10T02:09:25.017Z,78
2022-08-10T02:11:01.351Z,78
2022-08-10T02:12:37.676Z,78
2022-08-10T02:14:14.003Z,78.5
2022-08-10T02:15:50.332Z,78.5
2022-08-10T02:17:26.672Z,78.5
2022-08-10T02:19:03.002Z,78.5
2022-08-10T02:20:39.334Z,78.5
2022-08-10T02:22:15.657Z,79
2022-08-10T02:23:51.988Z,79
2022-08-10T02:25:28.326Z,79
2022-08-10T02:27:04.657Z,79
2022-08-10T02:28:40.985Z,79
2022-08-10T02:30:17.307Z,79.5
2022-08-10T02:31:52.661Z,79.5
2022-08-10T02:33:28.992Z,79.5
2022-08-10T02:35:05.317Z,79.5
2022-08-10T02:36:41.665Z,79.5
2022-08-10T02:38:17.980Z,80
2022-08-10T02:39:54.314Z,80
2022-08-10T02:41:30.643Z,80
2022-08-10T02:45:00.605Z,80
2022-08-10T02:45:00.787Z,80.5
2022-08-10T02:46:19.635Z,80.5
2022-08-10T02:47:55.972Z,80.5
2022-08-10T02:49:32.302Z,80.5
2022-08-10T02:51:08.623Z,80.5
2022-08-10T02:52:43.977Z,80.5
2022-08-10T02:54:20.342Z,80.5
2022-08-10T02:55:56.638Z,80.5
2022-08-10T02:57:32.978Z,80.5
2022-08-10T02:59:09.303Z,81
2022-08-10T03:00:45.627Z,81
2022-08-10T03:02:21.958Z,81
2022-08-10T03:03:58.292Z,81
2022-08-10T03:05:34.626Z,81.5
2022-08-10T03:07:10.953Z,81.5
2022-08-10T03:08:47.283Z,81.5
2022-08-10T03:10:23.614Z,81.5
2022-08-10T03:11:59.945Z,81.5
2022-08-10T03:13:35.299Z,81.5
2022-08-10T03:15:11.624Z,81.5
2022-08-10T03:16:47.953Z,81.5
2022-08-10T03:18:24.284Z,81
2022-08-10T03:20:00.619Z,81.5
2022-08-10T03:21:36.947Z,81.5
2022-08-10T03:23:13.273Z,82
2022-08-10T03:24:49.610Z,82
2022-08-10T03:26:25.941Z,82
2022-08-10T03:28:02.270Z,82.5
2022-08-10T03:29:38.611Z,82
2022-08-10T03:31:14.930Z,82.5
2022-08-10T03:32:51.260Z,82
2022-08-10T03:34:27.591Z,82.5
2022-08-10T03:36:02.934Z,82.5
2022-08-10T03:37:39.275Z,83
2022-08-10T03:39:15.609Z,83
2022-08-10T03:40:51.929Z,83
2022-08-10T03:42:28.262Z,83.5
2022-08-10T03:44:04.588Z,83
2022-08-10T03:45:40.920Z,83
2022-08-10T03:47:17.249Z,83.5
2022-08-10T03:48:53.587Z,84
2022-08-10T03:50:29.915Z,84
2022-08-10T03:52:06.247Z,84.5
2022-08-10T03:53:42.576Z,84
2022-08-10T03:55:18.923Z,84
2022-08-10T03:56:54.264Z,84
2022-08-10T03:58:30.587Z,84
2022-08-10T04:00:06.919Z,84
2022-08-10T04:01:43.253Z,84
2022-08-10T04:03:19.578Z,84
2022-08-10T04:04:55.912Z,84
2022-08-10T04:06:32.237Z,83.5
2022-08-10T04:08:08.580Z,83.5
2022-08-10T04:09:44.903Z,84
2022-08-10T04:11:21.232Z,83.5
2022-08-10T04:12:57.561Z,83.5
2022-08-10T04:14:33.900Z,83.5
2022-08-10T04:16:10.228Z,83.5
2022-08-10T04:17:45.573Z,83.5
2022-08-10T04:19:21.899Z,84
2022-08-10T04:20:58.236Z,83.5
2022-08-10T04:22:34.565Z,84
2022-08-10T04:24:10.902Z,84
2022-08-10T04:25:47.231Z,84
2022-08-10T04:27:23.561Z,84
2022-08-10T04:28:59.887Z,84
2022-08-10T04:30:36.223Z,84
2022-08-10T04:32:12.545Z,84.5
2022-08-10T04:33:48.894Z,84
2022-08-10T04:35:25.215Z,84
2022-08-10T04:37:01.545Z,84
2022-08-10T04:38:36.893Z,83.5
2022-08-10T04:40:13.225Z,84
2022-08-10T04:41:49.550Z,84
2022-08-10T04:43:25.881Z,83.5
2022-08-10T04:45:02.208Z,83.5
2022-08-10T04:46:38.548Z,83.5
2022-08-10T04:48:14.871Z,83
2022-08-10T04:49:51.203Z,83.5
2022-08-10T04:51:27.534Z,83.5
2022-08-10T04:53:03.866Z,83
2022-08-10T04:54:40.204Z,83.5
2022-08-10T04:56:16.526Z,84
2022-08-10T04:57:52.872Z,84
2022-08-10T04:59:28.213Z,84
2022-08-10T05:01:04.539Z,84
2022-08-10T05:02:40.866Z,84
2022-08-10T05:04:17.196Z,84
2022-08-10T05:05:53.535Z,84
2022-08-10T05:07:29.871Z,84
2022-08-10T05:09:06.194Z,84
2022-08-10T05:10:42.519Z,84
2022-08-10T05:12:18.847Z,83.5
2022-08-10T05:13:55.187Z,84
2022-08-10T05:15:31.519Z,83.5
2022-08-10T05:17:07.850Z,83.5
2022-08-10T05:18:44.177Z,83.5
2022-08-10T05:20:20.500Z,83.5
2022-08-10T05:21:56.844Z,83
2022-08-10T05:23:32.183Z,83.5
2022-08-10T05:25:08.508Z,83.5
2022-08-10T05:26:44.855Z,83.5
2022-08-10T05:28:21.179Z,83.5
2022-08-10T05:29:57.524Z,83.5
2022-08-10T05:31:33.841Z,83
2022-08-10T05:33:10.182Z,83.5
2022-08-10T05:34:46.520Z,83
2022-08-10T05:36:22.831Z,82.5
2022-08-10T05:37:59.162Z,82
2022-08-10T05:39:35.492Z,82
2022-08-10T05:41:11.819Z,82
2022-08-10T05:42:48.152Z,81.5
2022-08-10T05:44:23.497Z,81.5
2022-08-10T05:45:59.849Z,81
2022-08-10T05:47:36.169Z,81
2022-08-10T05:49:12.497Z,81
2022-08-10T05:50:48.826Z,80.5
2022-08-10T05:52:25.164Z,80.5
2022-08-10T05:54:01.494Z,80
2022-08-10T05:55:37.826Z,80
2022-08-10T05:57:14.156Z,80
2022-08-10T05:58:50.481Z,79
2022-08-10T06:00:26.811Z,78
2022-08-10T06:02:03.144Z,77.5
2022-08-10T06:03:39.472Z,77
2022-08-10T06:05:14.824Z,76
2022-08-10T06:06:51.151Z,75.5
2022-08-10T06:08:27.475Z,75.5
2022-08-10T06:10:03.809Z,75
2022-08-10T06:11:40.146Z,74.5
2022-08-10T06:13:16.471Z,74.5
2022-08-10T06:14:52.811Z,74
2022-08-10T06:16:29.135Z,74
2022-08-10T06:18:05.470Z,74
2022-08-10T06:19:41.791Z,73.5
2022-08-10T06:21:18.124Z,72.5
2022-08-10T06:22:54.453Z,72
2022-08-10T06:24:30.800Z,72
2022-08-10T06:26:06.139Z,72
2022-08-10T06:27:42.461Z,71
2022-08-10T06:29:18.798Z,70.5
2022-08-10T06:30:55.121Z,70.5
2022-08-10T06:32:31.463Z,70.5
2022-08-10T06:34:07.783Z,69.5
2022-08-10T06:35:44.119Z,69
2022-08-10T06:37:20.469Z,68.5
2022-08-10T06:38:56.782Z,68.5
2022-08-10T06:40:33.115Z,68
2022-08-10T06:42:09.445Z,68
2022-08-10T06:43:45.772Z,68
2022-08-10T06:45:22.111Z,67.5
2022-08-10T06:46:58.441Z,67
2022-08-10T06:48:33.779Z,66
2022-08-10T06:50:10.113Z,66
2022-08-10T06:51:46.446Z,65.5
2022-08-10T06:53:22.780Z,65.5
2022-08-10T06:54:59.102Z,65.5
2022-08-10T06:56:35.439Z,65
2022-08-10T06:58:11.772Z,65
2022-08-10T06:59:48.104Z,64
2022-08-10T07:01:24.436Z,64
2022-08-10T07:03:00.765Z,63.5
2022-08-10T07:04:37.093Z,63
2022-08-10T07:06:13.425Z,63
2022-08-10T07:07:49.754Z,63
2022-08-10T07:09:25.111Z,63
2022-08-10T07:11:01.435Z,62
2022-08-10T07:12:37.768Z,61.5
2022-08-10T07:14:14.104Z,61
2022-08-10T07:15:50.429Z,61
2022-08-10T07:17:26.757Z,61
2022-08-10T07:19:03.091Z,61
2022-08-10T07:20:39.421Z,61.5
2022-08-10T07:22:15.749Z,61.5
2022-08-10T07:23:52.081Z,62
2022-08-10T07:25:28.419Z,61.5
2022-08-10T07:27:04.747Z,61
2022-08-10T07:28:41.080Z,60
2022-08-10T07:30:16.420Z,59.5
2022-08-10T07:31:52.754Z,59.5
2022-08-10T07:33:29.078Z,59.5
2022-08-10T07:35:05.409Z,59
2022-08-10T07:36:41.742Z,59
2022-08-10T07:38:18.079Z,58.5
2022-08-10T07:39:54.400Z,58.5
2022-08-10T07:41:30.738Z,58.5
2022-08-10T07:43:07.075Z,58.5
2022-08-10T07:44:43.396Z,58
2022-08-10T07:46:19.732Z,58.5
2022-08-10T07:47:56.060Z,57.5
2022-08-10T07:49:32.396Z,57
2022-08-10T07:51:07.738Z,56.5
2022-08-10T07:52:44.068Z,55.5
2022-08-10T07:54:20.402Z,55.5
2022-08-10T07:55:56.732Z,56
2022-08-10T07:57:33.054Z,54.5
2022-08-10T07:59:09.402Z,54
2022-08-10T08:00:45.723Z,55
2022-08-10T08:02:22.060Z,53.5
2022-08-10T08:03:58.385Z,54.5
2022-08-10T08:05:34.712Z,54
2022-08-10T08:07:11.045Z,53.5
2022-08-10T08:08:47.376Z,53.5
2022-08-10T08:10:23.709Z,53.5
2022-08-10T08:12:00.059Z,53
2022-08-10T08:13:35.382Z,52
2022-08-10T08:15:11.720Z,52
2022-08-10T08:16:48.055Z,51.5
2022-08-10T08:18:24.381Z,51.5
2022-08-10T08:20:00.709Z,52.5
2022-08-10T08:21:37.045Z,52
2022-08-10T08:24:01.959Z,52
2022-08-10T08:24:49.698Z,52.5
2022-08-10T08:26:26.034Z,51.5
2022-08-10T08:28:02.359Z,51.5
2022-08-10T08:29:38.696Z,52
2022-08-10T08:31:15.026Z,52
2022-08-10T08:32:51.373Z,51.5
2022-08-10T08:34:27.682Z,51
2022-08-10T08:36:03.030Z,51
2022-08-10T08:37:39.362Z,51
2022-08-10T08:39:15.689Z,51.5
2022-08-10T08:40:52.024Z,51
2022-08-10T08:42:28.361Z,50.5
2022-08-10T08:44:04.705Z,50.5
2022-08-10T08:45:41.013Z,50
2022-08-10T08:47:17.348Z,50
2022-08-10T08:48:53.681Z,50
2022-08-10T08:50:30.018Z,50
2022-08-10T08:52:06.341Z,50
2022-08-10T08:53:42.666Z,49
2022-08-10T08:55:19.011Z,48.5
2022-08-10T08:56:54.360Z,49
2022-08-10T08:58:30.682Z,49
2022-08-10T09:00:07.015Z,48.5
2022-08-10T09:01:43.349Z,48.5
2022-08-10T09:03:19.678Z,48.5
2022-08-10T09:04:56.007Z,48.5
2022-08-10T09:06:32.334Z,48.5
2022-08-10T09:08:08.670Z,48
2022-08-10T09:09:44.994Z,48
2022-08-10T09:11:21.334Z,47.5
2022-08-10T09:12:57.655Z,48
2022-08-10T09:14:33.990Z,48
2022-08-10T09:16:10.321Z,47.5
2022-08-10T09:17:45.669Z,47
2022-08-10T09:19:22.001Z,47.5
2022-08-10T09:20:58.325Z,46
2022-08-10T09:22:34.655Z,46.5
2022-08-10T09:24:10.996Z,46.5
2022-08-10T09:25:47.323Z,46
2022-08-10T09:27:23.656Z,45.5
2022-08-10T09:28:59.981Z,46
2022-08-10T09:30:36.317Z,46
2022-08-10T09:32:12.644Z,46
2022-08-10T09:33:48.978Z,46
2022-08-10T09:35:39.876Z,45.5
2022-08-10T09:37:01.642Z,45.5
2022-08-10T09:38:36.981Z,45.5
2022-08-10T09:40:13.317Z,44.5
2022-08-10T09:41:49.645Z,44
2022-08-10T09:43:25.975Z,44.5
2022-08-10T09:45:02.310Z,44.5
2022-08-10T09:46:38.636Z,44.5
2022-08-10T09:48:14.964Z,44.5
2022-08-10T09:49:51.299Z,44.5
2022-08-10T09:51:27.641Z,43.5
2022-08-10T09:53:03.964Z,44
2022-08-10T09:54:40.286Z,44
2022-08-10T09:56:16.624Z,43.5
2022-08-10T09:57:52.953Z,43
2022-08-10T09:59:28.304Z,42
2022-08-10T10:01:04.641Z,41.5
2022-08-10T10:02:40.969Z,42.5
2022-08-10T10:04:17.288Z,42
2022-08-10T10:05:53.634Z,42.5
2022-08-10T10:07:29.969Z,42.5
2022-08-10T10:09:06.291Z,41.5
2022-08-10T10:10:42.619Z,40.5
2022-08-10T10:12:18.943Z,41
2022-08-10T10:13:55.298Z,41
2022-08-10T10:15:31.603Z,41
2022-08-10T10:17:07.932Z,39.5
2022-08-10T10:18:44.267Z,40.5
2022-08-10T10:20:20.604Z,41
2022-08-10T10:21:55.948Z,40
2022-08-10T10:23:32.281Z,39
2022-08-10T10:25:08.613Z,39.5
2022-08-10T10:26:44.949Z,40
2022-08-10T10:28:21.276Z,40.5
2022-08-10T10:29:57.606Z,41
2022-08-10T10:31:33.934Z,40.5
2022-08-10T10:33:10.262Z,40
2022-08-10T10:34:46.591Z,40.5
2022-08-10T10:36:22.954Z,41
2022-08-10T10:37:59.263Z,40.5
2022-08-10T10:39:35.592Z,40.5
2022-08-10T10:41:11.921Z,41
2022-08-10T10:42:47.271Z,40.5
2022-08-10T10:44:23.595Z,41
2022-08-10T10:45:59.930Z,40
2022-08-10T10:47:36.264Z,41
2022-08-10T10:49:12.594Z,41
2022-08-10T10:50:48.923Z,41
2022-08-10T10:52:25.247Z,41
2022-08-10T10:54:01.593Z,40.5
2022-08-10T10:55:37.915Z,41
2022-08-10T10:57:14.243Z,41
2022-08-10T10:58:50.587Z,40.5
2022-08-10T11:00:26.903Z,40
2022-08-10T11:02:03.242Z,40.5
2022-08-10T11:03:39.567Z,40.5
2022-08-10T11:05:14.920Z,40.5
2022-08-10T11:06:51.247Z,40
2022-08-10T11:08:27.582Z,40
2022-08-10T11:10:03.906Z,39.5
2022-08-10T11:11:40.238Z,39
2022-08-10T11:13:16.571Z,38.5
2022-08-10T11:14:52.901Z,39
2022-08-10T11:16:29.238Z,39
2022-08-10T11:18:05.566Z,38.5
2022-08-10T11:19:41.901Z,39
2022-08-10T11:21:18.223Z,38.5
2022-08-10T11:22:54.556Z,39
2022-08-10T11:24:30.888Z,38.5
2022-08-10T11:26:07.223Z,39.5
2022-08-10T11:27:42.567Z,39.5
2022-08-10T11:29:18.895Z,39.5
2022-08-10T11:30:55.222Z,39.5
2022-08-10T11:32:31.557Z,38.5
2022-08-10T11:34:07.893Z,39
2022-08-10T11:35:44.216Z,39
2022-08-10T11:37:20.550Z,39.5
2022-08-10T11:38:56.876Z,39
2022-08-10T11:40:33.203Z,39
2022-08-10T11:42:09.543Z,38.5
2022-08-10T11:43:45.873Z,38.5
2022-08-10T11:45:22.204Z,38.5
2022-08-10T11:46:58.532Z,38
2022-08-10T11:48:33.880Z,39
2022-08-10T11:50:10.213Z,37.5
2022-08-10T11:51:46.544Z,37.5
2022-08-10T11:53:22.874Z,38
2022-08-10T11:54:59.204Z,38
2022-08-10T11:56:35.530Z,37.5
2022-08-10T11:58:11.871Z,37
2022-08-10T11:59:48.198Z,37
2022-08-10T12:01:24.529Z,36
2022-08-10T12:03:00.864Z,37.5
2022-08-10T12:04:37.192Z,37.5
2022-08-10T12:06:13.519Z,38
2022-08-10T12:07:49.849Z,38
2022-08-10T12:09:25.194Z,38
2022-08-10T12:11:01.530Z,38
2022-08-10T12:12:37.869Z,37.5
2022-08-10T12:14:14.191Z,37.5
2022-08-10T12:15:50.532Z,37
2022-08-10T12:17:26.856Z,37.5
2022-08-10T12:19:03.192Z,37.5
2022-08-10T12:20:39.526Z,37.5
2022-08-10T12:22:15.847Z,37.5
2022-08-10T12:23:52.174Z,38
2022-08-10T12:25:28.505Z,38
2022-08-10T12:27:04.856Z,37
2022-08-10T12:28:41.170Z,37.5
2022-08-10T12:30:16.520Z,37.5
2022-08-10T12:31:52.850Z,37
2022-08-10T12:33:29.186Z,37
2022-08-10T12:35:04.531Z,37.5
2022-08-10T12:36:40.861Z,37
2022-08-10T12:38:17.199Z,37
2022-08-10T12:39:53.526Z,37.5
2022-08-10T12:41:29.853Z,37.5
2022-08-10T12:43:06.187Z,37
2022-08-10T12:44:42.520Z,37
2022-08-10T12:46:18.850Z,36.5
2022-08-10T12:47:55.194Z,36
2022-08-10T12:49:31.513Z,36.5
2022-08-10T12:51:07.837Z,36
2022-08-10T12:52:44.176Z,36
2022-08-10T12:54:20.497Z,36.5
2022-08-10T12:55:55.847Z,36.5
2022-08-10T12:57:32.191Z,36.5
2022-08-10T12:59:08.515Z,36
2022-08-10T13:00:44.839Z,36
2022-08-10T13:02:21.181Z,36
2022-08-10T13:03:57.535Z,36.5
2022-08-10T13:05:33.837Z,36
2022-08-10T13:07:10.167Z,36
2022-08-10T13:08:46.496Z,36.5
2022-08-10T13:10:22.823Z,37
2022-08-10T13:11:59.160Z,37
2022-08-10T13:13:35.498Z,37
2022-08-10T13:15:11.821Z,37
2022-08-10T13:16:47.162Z,37.5
2022-08-10T13:18:23.507Z,36.5
2022-08-10T13:19:59.836Z,35.5
2022-08-10T13:21:36.157Z,35.5
2022-08-10T13:23:12.496Z,36.5
2022-08-10T13:24:48.828Z,36
2022-08-10T13:26:25.153Z,36
2022-08-10T13:28:01.484Z,36
2022-08-10T13:29:37.818Z,36
2022-08-10T13:31:14.157Z,35.5
2022-08-10T13:32:50.477Z,36
2022-08-10T13:34:26.808Z,35.5
2022-08-10T13:36:03.141Z,36
2022-08-10T13:37:38.488Z,35.5
2022-08-10T13:39:14.816Z,35
2022-08-10T13:40:51.143Z,35
2022-08-10T13:42:27.483Z,35
2022-08-10T13:44:03.808Z,35.5
2022-08-10T13:45:40.135Z,35.5
2022-08-10T13:47:16.467Z,35.5
2022-08-10T13:48:52.797Z,35
2022-08-10T13:50:29.138Z,34.5
2022-08-10T13:52:05.464Z,35
2022-08-10T13:53:41.796Z,35
2022-08-10T13:55:18.136Z,34.5
2022-08-10T13:56:54.453Z,34.5
2022-08-10T13:58:29.800Z,35
2022-08-10T14:00:06.132Z,35
2022-08-10T14:01:42.462Z,35.5
2022-08-10T14:03:18.792Z,35
2022-08-10T14:04:55.124Z,35.5
2022-08-10T14:06:31.459Z,35
2022-08-10T14:08:07.790Z,34.5
2022-08-10T14:09:44.119Z,35
2022-08-10T14:11:20.456Z,35.5
2022-08-10T14:12:56.779Z,35
2022-08-10T14:14:33.113Z,34.5
2022-08-10T14:16:09.445Z,35
2022-08-10T14:17:45.778Z,34.5
2022-08-10T14:19:22.107Z,34.5
2022-08-10T14:20:57.460Z,34.5
2022-08-10T14:22:33.791Z,35
2022-08-10T14:24:10.117Z,35
2022-08-10T14:25:46.448Z,35
2022-08-10T14:27:22.773Z,35
2022-08-10T14:28:59.101Z,35
2022-08-10T14:30:35.456Z,35
2022-08-10T14:32:11.770Z,35
2022-08-10T14:33:48.098Z,35
2022-08-10T14:35:24.438Z,35
2022-08-10T14:37:00.783Z,35
2022-08-10T14:38:37.094Z,35
2022-08-10T14:40:13.429Z,35
2022-08-10T14:41:48.776Z,35.5
2022-08-10T14:43:25.102Z,35.5
2022-08-10T14:45:01.435Z,35
2022-08-10T14:46:37.793Z,35.5
2022-08-10T14:48:14.093Z,34.5
2022-08-10T14:49:50.422Z,34.5
2022-08-10T14:51:25.788Z,34.5
2022-08-10T14:53:02.167Z,34
2022-08-10T14:54:37.460Z,34.5
2022-08-10T14:56:13.792Z,34
2022-08-10T14:57:50.130Z,34.5
2022-08-10T14:59:26.453Z,34.5
2022-08-10T15:01:02.786Z,34.5
2022-08-10T15:02:39.114Z,34.5
2022-08-10T15:04:15.448Z,34
2022-08-10T15:05:51.792Z,33.5
2022-08-10T15:07:28.108Z,34
2022-08-10T15:09:04.440Z,34
2022-08-10T15:10:40.808Z,34
2022-08-10T15:12:17.103Z,34.5
2022-08-10T15:13:53.436Z,34.5
2022-08-10T15:15:28.792Z,34
2022-08-10T15:17:05.112Z,34
2022-08-10T15:18:41.435Z,34
2022-08-10T15:20:16.802Z,34
2022-08-10T15:21:52.148Z,34.5
2022-08-10T15:23:28.488Z,34.5
2022-08-10T15:25:04.809Z,34
2022-08-10T15:26:41.141Z,34.5
2022-08-10T15:28:17.494Z,34.5
2022-08-10T15:29:53.805Z,33.5
2022-08-10T15:31:30.133Z,34.5
2022-08-10T15:33:06.465Z,34.5
2022-08-10T15:34:42.791Z,34.5
2022-08-10T15:36:19.143Z,33.5
2022-08-10T15:37:55.467Z,34
2022-08-10T15:39:31.789Z,34.5
2022-08-10T15:41:08.118Z,34.5
2022-08-10T15:42:43.464Z,34
2022-08-10T15:44:19.794Z,34.5
2022-08-10T15:45:56.146Z,34
2022-08-10T15:47:32.455Z,34
2022-08-10T15:49:08.794Z,34.5
2022-08-10T15:50:45.131Z,34.5
2022-08-10T15:52:21.446Z,34.5
2022-08-10T15:53:57.774Z,35
2022-08-10T15:55:34.119Z,34.5
2022-08-10T15:57:10.448Z,34.5
2022-08-10T15:58:46.777Z,34
2022-08-10T16:00:23.105Z,34.5
2022-08-10T16:01:59.450Z,34.5
2022-08-10T16:03:35.774Z,34.5
2022-08-10T16:05:12.100Z,34.5
2022-08-10T16:06:47.453Z,34.5
2022-08-10T16:08:23.774Z,35
2022-08-10T16:10:00.108Z,34.5
2022-08-10T16:11:36.443Z,34
2022-08-10T16:13:12.763Z,33.5
2022-08-10T16:14:49.099Z,34
2022-08-10T16:16:25.438Z,34.5
2022-08-10T16:18:01.761Z,34.5
2022-08-10T16:19:38.096Z,34
2022-08-10T16:21:14.426Z,34
2022-08-10T16:22:50.750Z,34.5
2022-08-10T16:24:27.084Z,34.5
2022-08-10T16:26:03.433Z,34
2022-08-10T16:27:38.782Z,34.5
2022-08-10T16:29:15.103Z,34.5
2022-08-10T16:30:51.425Z,34
2022-08-10T16:32:27.758Z,33.5
2022-08-10T16:34:04.090Z,33.5
2022-08-10T16:35:40.412Z,33.5
2022-08-10T16:37:16.762Z,33.5
2022-08-10T16:38:53.074Z,33
2022-08-10T16:40:29.427Z,33.5
2022-08-10T16:42:05.779Z,34
2022-08-10T16:43:42.079Z,33.5
2022-08-10T16:45:18.408Z,33.5
2022-08-10T16:46:54.730Z,33.5
2022-08-10T16:48:30.096Z,33.5
2022-08-10T16:50:06.413Z,33.5
2022-08-10T16:51:42.740Z,33.5
2022-08-10T16:53:19.076Z,34.5
2022-08-10T16:54:55.407Z,35
2022-08-10T16:56:31.739Z,34.5
2022-08-10T16:58:08.092Z,34.5
2022-08-10T16:59:44.393Z,35
2022-08-10T17:01:20.738Z,35
2022-08-10T17:02:57.063Z,35
2022-08-10T17:04:33.389Z,35.5
2022-08-10T17:06:09.735Z,35
2022-08-10T17:07:46.053Z,35
2022-08-10T17:09:21.397Z,34.5
2022-08-10T17:10:57.737Z,34.5
2022-08-10T17:12:34.064Z,34.5
2022-08-10T17:14:10.394Z,35
2022-08-10T17:15:46.722Z,35
2022-08-10T17:17:23.053Z,35
2022-08-10T17:18:59.385Z,35
2022-08-10T17:20:35.716Z,35
2022-08-10T17:22:12.054Z,35
2022-08-10T17:23:48.383Z,35.5
2022-08-10T17:25:24.715Z,35.5
2022-08-10T17:27:01.045Z,35.5
2022-08-10T17:28:37.371Z,35.5
2022-08-10T17:30:13.706Z,36
2022-08-10T17:31:50.038Z,36
2022-08-10T17:33:25.375Z,36
2022-08-10T17:35:01.711Z,36
2022-08-10T17:36:38.036Z,36
2022-08-10T17:38:14.377Z,36.5
2022-08-10T17:39:50.699Z,36.5
2022-08-10T17:41:27.037Z,36.5
2022-08-10T17:43:03.365Z,36.5
2022-08-10T17:44:39.724Z,36.5
2022-08-10T17:46:16.040Z,36.5
2022-08-10T17:47:52.355Z,36.5
2022-08-10T17:49:28.691Z,36.5
2022-08-10T17:51:05.024Z,36.5
2022-08-10T17:52:41.345Z,36.5
2022-08-10T17:54:16.720Z,36.5
2022-08-10T17:55:53.036Z,37
2022-08-10T17:57:29.361Z,36.5
2022-08-10T17:59:05.700Z,36.5
2022-08-10T18:00:41.053Z,36.5
2022-08-10T18:02:17.374Z,36.5
2022-08-10T18:03:53.709Z,36.5
2022-08-10T18:05:30.039Z,36.5
2022-08-10T18:07:06.377Z,36.5
2022-08-10T18:08:42.694Z,36.5
2022-08-10T18:10:19.025Z,36.5
2022-08-10T18:11:55.357Z,36.5
2022-08-10T18:13:31.691Z,37
2022-08-10T18:15:08.021Z,37
2022-08-10T18:16:44.357Z,37
2022-08-10T18:18:20.688Z,37
2022-08-10T18:19:57.018Z,37
2022-08-10T18:21:32.364Z,37
2022-08-10T18:23:08.695Z,37
2022-08-10T18:24:45.025Z,37
2022-08-10T18:26:21.354Z,36.5
2022-08-10T18:27:57.681Z,36.5
2022-08-10T18:29:34.019Z,36.5
2022-08-10T18:31:10.356Z,36.5
2022-08-10T18:32:46.680Z,37
2022-08-10T18:34:23.011Z,37
2022-08-10T18:35:59.336Z,37
2022-08-10T18:37:35.672Z,37
2022-08-10T18:39:12.000Z,37
2022-08-10T18:40:48.330Z,37
2022-08-10T18:42:23.679Z,37.5
2022-08-10T18:44:00.011Z,37.5
2022-08-10T18:45:36.338Z,37.5
2022-08-10T18:47:12.664Z,37.5
2022-08-10T18:48:49.005Z,37.5
2022-08-10T18:50:25.339Z,38
2022-08-10T18:52:01.667Z,38
2022-08-10T18:53:37.993Z,38
2022-08-10T18:55:14.325Z,38
2022-08-10T18:56:50.656Z,38
2022-08-10T18:58:26.991Z,38.5
2022-08-10T19:00:03.321Z,38.5
2022-08-10T19:01:39.652Z,38.5
2022-08-10T19:03:14.992Z,39
2022-08-10T19:04:51.326Z,38.5
2022-08-10T19:06:27.657Z,39
2022-08-10T19:08:03.983Z,39
2022-08-10T19:09:40.327Z,39
2022-08-10T19:11:16.656Z,39
2022-08-10T19:12:52.976Z,39
2022-08-10T19:14:29.308Z,39
2022-08-10T19:16:05.638Z,39
2022-08-10T19:17:41.970Z,39
2022-08-10T19:19:18.304Z,39.5
2022-08-10T19:20:53.660Z,39.5
2022-08-10T19:22:29.009Z,40
2022-08-10T19:24:05.341Z,40
2022-08-10T19:25:41.676Z,40.5
2022-08-10T19:27:18.029Z,40.5
2022-08-10T19:28:54.329Z,40.5
2022-08-10T19:30:30.663Z,41
2022-08-10T19:32:06.993Z,41
2022-08-10T19:33:43.332Z,41
2022-08-10T19:35:19.656Z,41
2022-08-10T19:36:55.990Z,41.5
2022-08-10T19:38:31.346Z,41.5
2022-08-10T19:40:06.701Z,41.5
2022-08-10T19:41:43.029Z,42
2022-08-10T19:43:19.362Z,42
2022-08-10T19:44:55.684Z,42
2022-08-10T19:46:32.013Z,42.5
2022-08-10T19:48:08.352Z,42.5
2022-08-10T19:49:44.681Z,42.5
2022-08-10T19:51:21.010Z,42.5
2022-08-10T19:52:57.338Z,43
2022-08-10T19:54:33.675Z,43
2022-08-10T19:56:10.006Z,43.5
2022-08-10T19:57:46.335Z,43.5
2022-08-10T19:59:22.672Z,43.5
2022-08-10T20:00:58.014Z,44
2022-08-10T20:02:34.346Z,44
2022-08-10T20:04:10.669Z,44
2022-08-10T20:05:47.002Z,44
2022-08-10T20:07:23.344Z,44
2022-08-10T20:08:59.669Z,44.5
2022-08-10T20:10:35.999Z,44.5
2022-08-10T20:12:12.325Z,44.5
2022-08-10T20:13:48.659Z,44.5
2022-08-10T20:15:24.990Z,44.5
2022-08-10T20:17:01.323Z,44.5
2022-08-10T20:18:37.654Z,45
2022-08-10T20:20:13.990Z,45
2022-08-10T20:21:49.326Z,45
2022-08-10T20:23:25.658Z,45
2022-08-10T20:25:01.986Z,45
2022-08-10T20:26:38.325Z,45
2022-08-10T20:28:14.665Z,45
2022-08-10T20:29:50.986Z,45
2022-08-10T20:31:27.311Z,45.5
2022-08-10T20:33:03.643Z,45.5
2022-08-10T20:34:39.970Z,45.5
2022-08-10T20:36:16.303Z,45.5
2022-08-10T20:37:52.643Z,45.5
2022-08-10T20:39:28.967Z,45.5
2022-08-10T20:41:05.301Z,45.5
2022-08-10T20:42:40.647Z,45.5
2022-08-10T20:44:16.975Z,46
2022-08-10T20:45:53.306Z,46
2022-08-10T20:47:29.637Z,46
2022-08-10T20:49:05.969Z,46
2022-08-10T20:50:42.306Z,46
2022-08-10T20:52:18.636Z,46
2022-08-10T20:53:54.957Z,46
2022-08-10T20:55:31.291Z,46
2022-08-10T20:57:07.625Z,46
2022-08-10T20:58:43.952Z,46.5
2022-08-10T21:00:20.283Z,46.5
2022-08-10T21:01:56.612Z,46.5
2022-08-10T21:03:32.949Z,46.5
2022-08-10T21:05:08.293Z,46.5
2022-08-10T21:06:44.621Z,47
2022-08-10T21:08:20.957Z,47
2022-08-10T21:09:57.286Z,47
2022-08-10T21:11:33.617Z,47
2022-08-10T21:13:09.946Z,47
2022-08-10T21:14:46.273Z,47
2022-08-10T21:16:22.603Z,47
2022-08-10T21:17:58.941Z,47
2022-08-10T21:19:35.318Z,47
2022-08-10T21:21:11.622Z,46.5
2022-08-10T21:22:47.963Z,47
2022-08-10T21:24:24.272Z,46.5
2022-08-10T21:25:59.625Z,47
2022-08-10T21:27:35.971Z,47
2022-08-10T21:29:12.310Z,46.5
2022-08-10T21:30:48.605Z,46.5
2022-08-10T21:32:24.962Z,46.5
2022-08-10T21:34:01.273Z,46.5
2022-08-10T21:35:37.601Z,46.5
2022-08-10T21:37:13.949Z,46.5
2022-08-10T21:38:50.288Z,46.5
2022-08-10T21:40:26.596Z,47
2022-08-10T21:42:02.950Z,47
2022-08-10T21:43:39.267Z,47
2022-08-10T21:45:15.587Z,47.5
2022-08-10T21:46:50.927Z,47.5
2022-08-10T21:48:27.285Z,47.5
2022-08-10T21:50:03.648Z,47.5
2022-08-10T21:51:39.934Z,47.5
2022-08-10T21:53:16.252Z,48
2022-08-10T21:54:52.612Z,48
2022-08-10T21:56:28.941Z,48
2022-08-10T21:58:05.276Z,48
2022-08-10T21:59:41.597Z,48
2022-08-10T22:01:17.910Z,48.5
2022-08-10T22:02:54.245Z,48.5
2022-08-10T22:04:30.583Z,48.5